sensor_id;sensor_type;location;lat;lon;timestamp;pressure;altitude;pressure_sealevel;temperature;humidity
65013;BME280;51715;39.432;-77.518;2023-04-05T00:00:15;99467.37;;;26.48;25.96
65013;BME280;51715;39.432;-77.518;2023-04-05T00:02:44;99479.03;;;26.34;26.03
65013;BME280;51715;39.432;-77.518;2023-04-05T00:05:12;99488.06;;;26.01;26.52
65013;BME280;51715;39.432;-77.518;2023-04-05T00:07:41;99495.74;;;26.19;26.83
65013;BME280;51715;39.432;-77.518;2023-04-05T00:10:10;99497.30;;;25.73;27.16
65013;BME280;51715;39.432;-77.518;2023-04-05T00:12:38;99495.36;;;25.87;28.00
65013;BME280;51715;39.432;-77.518;2023-04-05T00:15:07;99496.21;;;25.61;28.42
65013;BME280;51715;39.432;-77.518;2023-04-05T00:17:35;99499.54;;;25.53;28.10
65013;BME280;51715;39.432;-77.518;2023-04-05T00:20:05;99506.69;;;25.42;28.15
65013;BME280;51715;39.432;-77.518;2023-04-05T00:22:33;99512.60;;;25.34;28.26
65013;BME280;51715;39.432;-77.518;2023-04-05T00:25:00;99518.02;;;25.27;28.20
65013;BME280;51715;39.432;-77.518;2023-04-05T00:27:29;99517.00;;;25.17;28.34
65013;BME280;51715;39.432;-77.518;2023-04-05T00:29:59;99519.92;;;25.11;29.21
65013;BME280;51715;39.432;-77.518;2023-04-05T00:32:27;99522.09;;;24.64;30.05
65013;BME280;51715;39.432;-77.518;2023-04-05T00:34:55;99517.86;;;24.44;30.29
65013;BME280;51715;39.432;-77.518;2023-04-05T00:37:23;99514.06;;;24.38;30.29
65013;BME280;51715;39.432;-77.518;2023-04-05T00:39:52;99519.38;;;24.56;30.07
65013;BME280;51715;39.432;-77.518;2023-04-05T00:42:21;99531.58;;;24.54;29.97
65013;BME280;51715;39.432;-77.518;2023-04-05T00:44:50;99546.79;;;24.39;30.14
65013;BME280;51715;39.432;-77.518;2023-04-05T00:47:19;99553.21;;;24.28;29.92
65013;BME280;51715;39.432;-77.518;2023-04-05T00:49:48;99555.07;;;24.51;30.07
65013;BME280;51715;39.432;-77.518;2023-04-05T00:52:17;99556.12;;;24.39;30.52
65013;BME280;51715;39.432;-77.518;2023-04-05T00:54:45;99553.44;;;24.21;30.29
65013;BME280;51715;39.432;-77.518;2023-04-05T00:57:13;99557.38;;;24.28;29.99
65013;BME280;51715;39.432;-77.518;2023-04-05T00:59:42;99560.77;;;24.39;29.97
65013;BME280;51715;39.432;-77.518;2023-04-05T01:02:15;99560.83;;;24.23;30.40
65013;BME280;51715;39.432;-77.518;2023-04-05T01:04:48;99562.17;;;24.37;30.67
65013;BME280;51715;39.432;-77.518;2023-04-05T01:07:28;99569.41;;;24.04;31.05
65013;BME280;51715;39.432;-77.518;2023-04-05T01:09:59;99574.12;;;23.85;31.01
65013;BME280;51715;39.432;-77.518;2023-04-05T01:12:31;99578.76;;;23.77;30.99
65013;BME280;51715;39.432;-77.518;2023-04-05T01:15:00;99585.30;;;23.73;31.55
65013;BME280;51715;39.432;-77.518;2023-04-05T01:17:30;99585.13;;;23.87;31.73
65013;BME280;51715;39.432;-77.518;2023-04-05T01:20:00;99584.18;;;23.56;31.84
65013;BME280;51715;39.432;-77.518;2023-04-05T01:22:53;99583.14;;;23.49;32.19
65013;BME280;51715;39.432;-77.518;2023-04-05T01:25:40;99585.98;;;23.57;32.29
65013;BME280;51715;39.432;-77.518;2023-04-05T01:28:26;99589.02;;;23.15;32.65
65013;BME280;51715;39.432;-77.518;2023-04-05T01:31:06;99588.21;;;22.97;32.47
65013;BME280;51715;39.432;-77.518;2023-04-05T01:33:40;99595.55;;;23.10;32.10
65013;BME280;51715;39.432;-77.518;2023-04-05T01:36:17;99595.10;;;23.47;31.91
65013;BME280;51715;39.432;-77.518;2023-04-05T01:38:53;99591.50;;;23.39;31.34
65013;BME280;51715;39.432;-77.518;2023-04-05T01:41:22;99589.00;;;23.46;31.98
65013;BME280;51715;39.432;-77.518;2023-04-05T01:43:50;99593.10;;;23.73;31.30
65013;BME280;51715;39.432;-77.518;2023-04-05T01:46:19;99604.11;;;22.92;32.44
65013;BME280;51715;39.432;-77.518;2023-04-05T01:48:47;99608.10;;;22.65;33.46
65013;BME280;51715;39.432;-77.518;2023-04-05T01:51:16;99606.69;;;22.22;34.71
65013;BME280;51715;39.432;-77.518;2023-04-05T01:53:44;99603.07;;;22.65;33.92
65013;BME280;51715;39.432;-77.518;2023-04-05T01:56:12;99608.05;;;23.07;33.30
65013;BME280;51715;39.432;-77.518;2023-04-05T01:58:41;99607.72;;;22.79;33.52
65013;BME280;51715;39.432;-77.518;2023-04-05T02:01:10;99613.11;;;23.00;33.03
65013;BME280;51715;39.432;-77.518;2023-04-05T02:03:38;99611.32;;;23.35;32.53
65013;BME280;51715;39.432;-77.518;2023-04-05T02:06:07;99611.19;;;23.31;32.44
65013;BME280;51715;39.432;-77.518;2023-04-05T02:08:35;99610.99;;;23.71;32.29
65013;BME280;51715;39.432;-77.518;2023-04-05T02:11:04;99611.19;;;23.46;32.21
65013;BME280;51715;39.432;-77.518;2023-04-05T02:13:33;99613.39;;;23.55;31.47
65013;BME280;51715;39.432;-77.518;2023-04-05T02:16:01;99614.55;;;23.54;32.26
65013;BME280;51715;39.432;-77.518;2023-04-05T02:18:30;99618.95;;;23.26;31.75
65013;BME280;51715;39.432;-77.518;2023-04-05T02:21:04;99616.09;;;23.56;31.18
65013;BME280;51715;39.432;-77.518;2023-04-05T02:23:34;99619.65;;;23.29;31.64
65013;BME280;51715;39.432;-77.518;2023-04-05T02:26:03;99616.72;;;23.82;31.79
65013;BME280;51715;39.432;-77.518;2023-04-05T02:28:31;99610.86;;;24.03;31.23
65013;BME280;51715;39.432;-77.518;2023-04-05T02:31:00;99619.47;;;23.67;30.78
65013;BME280;51715;39.432;-77.518;2023-04-05T02:33:29;99616.25;;;23.87;30.90
65013;BME280;51715;39.432;-77.518;2023-04-05T02:35:58;99619.70;;;23.94;30.24
65013;BME280;51715;39.432;-77.518;2023-04-05T02:38:26;99631.88;;;23.76;30.44
65013;BME280;51715;39.432;-77.518;2023-04-05T02:40:55;99635.23;;;23.88;31.10
65013;BME280;51715;39.432;-77.518;2023-04-05T02:43:24;99637.40;;;24.23;30.67
65013;BME280;51715;39.432;-77.518;2023-04-05T02:45:52;99645.20;;;23.14;31.60
65013;BME280;51715;39.432;-77.518;2023-04-05T02:48:20;99631.78;;;23.77;29.84
65013;BME280;51715;39.432;-77.518;2023-04-05T02:50:48;99625.27;;;24.42;29.68
65013;BME280;51715;39.432;-77.518;2023-04-05T02:53:17;99632.41;;;24.07;29.61
65013;BME280;51715;39.432;-77.518;2023-04-05T02:55:51;99623.56;;;23.80;29.77
65013;BME280;51715;39.432;-77.518;2023-04-05T02:58:20;99624.30;;;23.50;30.57
65013;BME280;51715;39.432;-77.518;2023-04-05T03:00:49;99621.32;;;23.54;31.23
65013;BME280;51715;39.432;-77.518;2023-04-05T03:03:19;99628.79;;;22.85;31.33
65013;BME280;51715;39.432;-77.518;2023-04-05T03:05:48;99626.80;;;23.77;30.92
65013;BME280;51715;39.432;-77.518;2023-04-05T03:08:24;99630.19;;;24.41;29.08
65013;BME280;51715;39.432;-77.518;2023-04-05T03:10:52;99634.14;;;24.11;29.18
65013;BME280;51715;39.432;-77.518;2023-04-05T03:13:21;99634.91;;;24.67;29.50
65013;BME280;51715;39.432;-77.518;2023-04-05T03:15:53;99631.01;;;24.29;29.06
65013;BME280;51715;39.432;-77.518;2023-04-05T03:18:21;99640.30;;;23.86;30.31
65013;BME280;51715;39.432;-77.518;2023-04-05T03:20:50;99637.27;;;24.50;29.53
65013;BME280;51715;39.432;-77.518;2023-04-05T03:23:19;99632.89;;;24.05;30.54
65013;BME280;51715;39.432;-77.518;2023-04-05T03:25:46;99628.54;;;24.39;30.13
65013;BME280;51715;39.432;-77.518;2023-04-05T03:28:15;99634.06;;;24.26;30.29
65013;BME280;51715;39.432;-77.518;2023-04-05T03:30:44;99640.80;;;23.91;30.87
65013;BME280;51715;39.432;-77.518;2023-04-05T03:33:12;99647.04;;;24.03;31.05
65013;BME280;51715;39.432;-77.518;2023-04-05T03:35:40;99642.80;;;24.01;30.88
65013;BME280;51715;39.432;-77.518;2023-04-05T03:38:08;99651.40;;;23.13;32.39
65013;BME280;51715;39.432;-77.518;2023-04-05T03:40:37;99652.63;;;23.80;32.05
65013;BME280;51715;39.432;-77.518;2023-04-05T03:43:05;99653.01;;;23.96;32.06
65013;BME280;51715;39.432;-77.518;2023-04-05T03:45:34;99652.66;;;23.90;32.08
65013;BME280;51715;39.432;-77.518;2023-04-05T03:48:02;99654.62;;;24.06;32.05
65013;BME280;51715;39.432;-77.518;2023-04-05T03:50:31;99652.02;;;23.64;32.95
65013;BME280;51715;39.432;-77.518;2023-04-05T03:52:59;99645.51;;;23.79;32.67
65013;BME280;51715;39.432;-77.518;2023-04-05T03:55:28;99642.74;;;24.03;32.65
65013;BME280;51715;39.432;-77.518;2023-04-05T03:57:56;99645.73;;;24.06;32.49
65013;BME280;51715;39.432;-77.518;2023-04-05T04:04:00;99653.19;;;23.96;31.71
65013;BME280;51715;39.432;-77.518;2023-04-05T04:06:29;99661.05;;;23.44;32.70
65013;BME280;51715;39.432;-77.518;2023-04-05T04:08:58;99662.28;;;23.67;32.36
65013;BME280;51715;39.432;-77.518;2023-04-05T04:11:26;99673.74;;;23.94;32.30
65013;BME280;51715;39.432;-77.518;2023-04-05T04:13:55;99671.37;;;24.26;32.38
65013;BME280;51715;39.432;-77.518;2023-04-05T04:16:22;99686.04;;;23.44;33.62
65013;BME280;51715;39.432;-77.518;2023-04-05T04:18:50;99692.33;;;23.44;34.06
65013;BME280;51715;39.432;-77.518;2023-04-05T04:21:17;99694.35;;;23.52;33.96
65013;BME280;51715;39.432;-77.518;2023-04-05T04:23:45;99695.70;;;23.57;34.53
65013;BME280;51715;39.432;-77.518;2023-04-05T04:26:13;99691.43;;;23.79;34.70
65013;BME280;51715;39.432;-77.518;2023-04-05T04:28:41;99682.77;;;23.24;34.92
65013;BME280;51715;39.432;-77.518;2023-04-05T04:31:11;99689.51;;;23.02;35.98
65013;BME280;51715;39.432;-77.518;2023-04-05T04:33:39;99692.97;;;22.57;36.61
65013;BME280;51715;39.432;-77.518;2023-04-05T04:36:08;99694.09;;;23.28;36.16
65013;BME280;51715;39.432;-77.518;2023-04-05T04:38:36;99692.42;;;23.71;35.54
65013;BME280;51715;39.432;-77.518;2023-04-05T04:41:06;99695.03;;;23.69;35.03
65013;BME280;51715;39.432;-77.518;2023-04-05T04:43:35;99696.55;;;22.99;36.03
65013;BME280;51715;39.432;-77.518;2023-04-05T04:46:03;99697.71;;;22.98;36.49
65013;BME280;51715;39.432;-77.518;2023-04-05T04:48:31;99701.87;;;23.09;36.02
65013;BME280;51715;39.432;-77.518;2023-04-05T04:51:02;99700.59;;;23.26;36.13
65013;BME280;51715;39.432;-77.518;2023-04-05T04:53:30;99701.51;;;22.99;36.41
65013;BME280;51715;39.432;-77.518;2023-04-05T04:55:59;99702.37;;;22.83;36.42
65013;BME280;51715;39.432;-77.518;2023-04-05T04:58:27;99708.17;;;22.89;36.36
65013;BME280;51715;39.432;-77.518;2023-04-05T05:00:56;99709.68;;;23.16;36.18
65013;BME280;51715;39.432;-77.518;2023-04-05T05:03:24;99707.96;;;23.48;35.39
65013;BME280;51715;39.432;-77.518;2023-04-05T05:05:53;99711.81;;;23.60;35.42
65013;BME280;51715;39.432;-77.518;2023-04-05T05:08:21;99715.42;;;23.55;35.95
65013;BME280;51715;39.432;-77.518;2023-04-05T05:10:50;99712.81;;;23.58;35.88
65013;BME280;51715;39.432;-77.518;2023-04-05T05:13:18;99712.52;;;23.35;35.82
65013;BME280;51715;39.432;-77.518;2023-04-05T05:15:46;99714.28;;;23.48;35.79
65013;BME280;51715;39.432;-77.518;2023-04-05T05:18:15;99720.21;;;22.82;36.98
65013;BME280;51715;39.432;-77.518;2023-04-05T05:20:44;99715.25;;;23.36;36.61
65013;BME280;51715;39.432;-77.518;2023-04-05T05:23:12;99715.13;;;22.44;38.38
65013;BME280;51715;39.432;-77.518;2023-04-05T05:25:40;99709.00;;;22.49;38.14
65013;BME280;51715;39.432;-77.518;2023-04-05T05:28:08;99705.84;;;22.21;38.52
65013;BME280;51715;39.432;-77.518;2023-04-05T05:30:36;99699.63;;;22.69;37.49
65013;BME280;51715;39.432;-77.518;2023-04-05T05:33:04;99701.76;;;23.15;37.19
65013;BME280;51715;39.432;-77.518;2023-04-05T05:35:32;99707.22;;;22.75;38.12
65013;BME280;51715;39.432;-77.518;2023-04-05T05:38:00;99703.10;;;23.01;37.30
65013;BME280;51715;39.432;-77.518;2023-04-05T05:40:28;99696.81;;;22.69;37.67
65013;BME280;51715;39.432;-77.518;2023-04-05T05:42:56;99698.32;;;22.69;37.36
65013;BME280;51715;39.432;-77.518;2023-04-05T05:45:24;99694.40;;;23.30;36.83
65013;BME280;51715;39.432;-77.518;2023-04-05T05:47:52;99697.71;;;22.55;38.61
65013;BME280;51715;39.432;-77.518;2023-04-05T05:50:20;99698.21;;;22.46;38.07
65013;BME280;51715;39.432;-77.518;2023-04-05T05:52:48;99698.56;;;22.64;37.33
65013;BME280;51715;39.432;-77.518;2023-04-05T05:55:17;99701.07;;;23.05;37.08
65013;BME280;51715;39.432;-77.518;2023-04-05T05:57:45;99696.35;;;23.20;36.71
65013;BME280;51715;39.432;-77.518;2023-04-05T06:00:15;99694.46;;;23.21;36.70
65013;BME280;51715;39.432;-77.518;2023-04-05T06:02:43;99701.56;;;23.08;36.52
65013;BME280;51715;39.432;-77.518;2023-04-05T06:05:11;99715.57;;;22.96;37.35
65013;BME280;51715;39.432;-77.518;2023-04-05T06:07:39;99716.27;;;23.17;37.03
65013;BME280;51715;39.432;-77.518;2023-04-05T06:10:08;99714.82;;;23.03;36.99
65013;BME280;51715;39.432;-77.518;2023-04-05T06:12:37;99713.55;;;23.25;37.13
65013;BME280;51715;39.432;-77.518;2023-04-05T06:15:06;99713.60;;;22.73;38.10
65013;BME280;51715;39.432;-77.518;2023-04-05T06:17:34;99719.18;;;22.96;37.53
65013;BME280;51715;39.432;-77.518;2023-04-05T06:20:03;99722.07;;;23.14;37.03
65013;BME280;51715;39.432;-77.518;2023-04-05T06:22:31;99716.13;;;23.08;37.02
65013;BME280;51715;39.432;-77.518;2023-04-05T06:24:59;99712.25;;;23.07;37.15
65013;BME280;51715;39.432;-77.518;2023-04-05T06:27:27;99712.65;;;23.13;36.89
65013;BME280;51715;39.432;-77.518;2023-04-05T06:29:58;99713.34;;;22.75;37.75
65013;BME280;51715;39.432;-77.518;2023-04-05T06:32:26;99718.46;;;22.77;37.68
65013;BME280;51715;39.432;-77.518;2023-04-05T06:34:55;99718.61;;;22.82;38.00
65013;BME280;51715;39.432;-77.518;2023-04-05T06:37:22;99719.52;;;22.73;37.89
65013;BME280;51715;39.432;-77.518;2023-04-05T06:39:51;99717.87;;;22.49;38.55
65013;BME280;51715;39.432;-77.518;2023-04-05T06:42:19;99719.47;;;22.55;38.05
65013;BME280;51715;39.432;-77.518;2023-04-05T06:44:47;99724.17;;;22.48;37.21
65013;BME280;51715;39.432;-77.518;2023-04-05T06:47:15;99730.94;;;22.81;37.35
65013;BME280;51715;39.432;-77.518;2023-04-05T06:49:43;99733.69;;;22.82;37.58
65013;BME280;51715;39.432;-77.518;2023-04-05T06:52:12;99729.07;;;22.55;37.36
65013;BME280;51715;39.432;-77.518;2023-04-05T06:54:39;99725.04;;;22.81;37.20
65013;BME280;51715;39.432;-77.518;2023-04-05T06:57:07;99727.88;;;22.77;37.41
65013;BME280;51715;39.432;-77.518;2023-04-05T06:59:35;99730.06;;;22.52;37.72
65013;BME280;51715;39.432;-77.518;2023-04-05T07:02:03;99731.82;;;22.45;37.49
65013;BME280;51715;39.432;-77.518;2023-04-05T07:04:32;99725.60;;;22.39;36.52
65013;BME280;51715;39.432;-77.518;2023-04-05T07:07:01;99725.17;;;22.10;36.65
65013;BME280;51715;39.432;-77.518;2023-04-05T07:09:31;99733.39;;;21.80;37.02
65013;BME280;51715;39.432;-77.518;2023-04-05T07:11:59;99734.27;;;22.08;37.13
65013;BME280;51715;39.432;-77.518;2023-04-05T07:14:29;99730.46;;;21.89;37.36
65013;BME280;51715;39.432;-77.518;2023-04-05T07:16:58;99726.83;;;21.65;37.36
65013;BME280;51715;39.432;-77.518;2023-04-05T07:19:26;99738.98;;;21.63;38.00
65013;BME280;51715;39.432;-77.518;2023-04-05T07:21:55;99740.27;;;21.58;37.91
65013;BME280;51715;39.432;-77.518;2023-04-05T07:24:24;99742.70;;;21.40;38.24
65013;BME280;51715;39.432;-77.518;2023-04-05T07:26:52;99740.71;;;21.12;38.35
65013;BME280;51715;39.432;-77.518;2023-04-05T07:29:20;99737.70;;;21.13;38.63
65013;BME280;51715;39.432;-77.518;2023-04-05T07:31:49;99733.14;;;21.10;38.40
65013;BME280;51715;39.432;-77.518;2023-04-05T07:34:17;99733.01;;;20.60;39.89
65013;BME280;51715;39.432;-77.518;2023-04-05T07:36:44;99727.32;;;20.35;40.45
65013;BME280;51715;39.432;-77.518;2023-04-05T07:39:12;99722.20;;;20.34;39.91
65013;BME280;51715;39.432;-77.518;2023-04-05T07:41:42;99723.02;;;20.24;39.96
65013;BME280;51715;39.432;-77.518;2023-04-05T07:44:10;99722.42;;;20.32;40.49
65013;BME280;51715;39.432;-77.518;2023-04-05T07:46:39;99721.69;;;20.14;40.62
65013;BME280;51715;39.432;-77.518;2023-04-05T07:49:07;99720.51;;;20.21;41.01
65013;BME280;51715;39.432;-77.518;2023-04-05T07:51:36;99719.74;;;20.00;41.15
65013;BME280;51715;39.432;-77.518;2023-04-05T07:54:05;99714.24;;;19.66;40.62
65013;BME280;51715;39.432;-77.518;2023-04-05T07:56:33;99713.26;;;19.78;40.18
65013;BME280;51715;39.432;-77.518;2023-04-05T07:59:01;99717.79;;;20.06;40.08
65013;BME280;51715;39.432;-77.518;2023-04-05T08:01:29;99717.54;;;19.74;40.55
65013;BME280;51715;39.432;-77.518;2023-04-05T08:03:58;99711.46;;;20.03;39.91
65013;BME280;51715;39.432;-77.518;2023-04-05T08:06:26;99705.58;;;19.97;40.19
65013;BME280;51715;39.432;-77.518;2023-04-05T08:08:54;99703.13;;;20.09;40.66
65013;BME280;51715;39.432;-77.518;2023-04-05T08:11:22;99705.57;;;20.09;41.26
65013;BME280;51715;39.432;-77.518;2023-04-05T08:13:50;99703.00;;;20.02;41.02
65013;BME280;51715;39.432;-77.518;2023-04-05T08:16:19;99699.77;;;19.99;41.46
65013;BME280;51715;39.432;-77.518;2023-04-05T08:18:47;99697.87;;;19.59;40.61
65013;BME280;51715;39.432;-77.518;2023-04-05T08:21:15;99699.23;;;19.64;40.06
65013;BME280;51715;39.432;-77.518;2023-04-05T08:23:44;99704.94;;;19.64;39.79
65013;BME280;51715;39.432;-77.518;2023-04-05T08:26:12;99706.45;;;19.65;39.64
65013;BME280;51715;39.432;-77.518;2023-04-05T08:28:40;99709.07;;;19.83;39.81
65013;BME280;51715;39.432;-77.518;2023-04-05T08:31:09;99710.54;;;19.98;39.83
65013;BME280;51715;39.432;-77.518;2023-04-05T08:33:37;99708.99;;;19.91;39.80
65013;BME280;51715;39.432;-77.518;2023-04-05T08:36:07;99701.39;;;19.79;40.41
65013;BME280;51715;39.432;-77.518;2023-04-05T08:38:36;99698.36;;;19.62;40.93
65013;BME280;51715;39.432;-77.518;2023-04-05T08:41:08;99700.30;;;19.50;41.18
65013;BME280;51715;39.432;-77.518;2023-04-05T08:43:48;99705.20;;;19.40;41.59
65013;BME280;51715;39.432;-77.518;2023-04-05T08:46:22;99710.47;;;19.38;41.37
65013;BME280;51715;39.432;-77.518;2023-04-05T08:48:51;99715.64;;;19.27;40.79
65013;BME280;51715;39.432;-77.518;2023-04-05T08:51:20;99716.53;;;19.43;40.60
65013;BME280;51715;39.432;-77.518;2023-04-05T08:53:49;99715.82;;;19.15;40.54
65013;BME280;51715;39.432;-77.518;2023-04-05T08:56:20;99724.64;;;19.28;40.67
65013;BME280;51715;39.432;-77.518;2023-04-05T08:58:55;99727.10;;;18.83;41.18
65013;BME280;51715;39.432;-77.518;2023-04-05T09:01:25;99722.03;;;18.95;41.54
65013;BME280;51715;39.432;-77.518;2023-04-05T09:03:56;99725.95;;;19.12;41.60
65013;BME280;51715;39.432;-77.518;2023-04-05T09:06:27;99728.93;;;18.73;41.52
65013;BME280;51715;39.432;-77.518;2023-04-05T09:08:57;99736.62;;;18.97;41.26
65013;BME280;51715;39.432;-77.518;2023-04-05T09:11:25;99740.29;;;18.91;42.22
65013;BME280;51715;39.432;-77.518;2023-04-05T09:13:54;99740.65;;;18.46;41.61
65013;BME280;51715;39.432;-77.518;2023-04-05T09:16:23;99737.03;;;18.65;41.11
65013;BME280;51715;39.432;-77.518;2023-04-05T09:18:52;99733.24;;;18.69;41.66
65013;BME280;51715;39.432;-77.518;2023-04-05T09:21:21;99728.05;;;18.43;42.05
65013;BME280;51715;39.432;-77.518;2023-04-05T09:23:53;99729.59;;;18.30;42.89
65013;BME280;51715;39.432;-77.518;2023-04-05T09:26:23;99732.20;;;18.13;43.34
65013;BME280;51715;39.432;-77.518;2023-04-05T09:28:51;99734.04;;;17.87;43.73
65013;BME280;51715;39.432;-77.518;2023-04-05T09:31:35;99739.44;;;17.68;45.18
65013;BME280;51715;39.432;-77.518;2023-04-05T09:34:05;99745.43;;;17.80;44.77
65013;BME280;51715;39.432;-77.518;2023-04-05T09:36:35;99749.42;;;18.18;44.55
65013;BME280;51715;39.432;-77.518;2023-04-05T09:39:05;99752.35;;;18.10;44.53
65013;BME280;51715;39.432;-77.518;2023-04-05T09:41:34;99757.29;;;18.23;43.84
65013;BME280;51715;39.432;-77.518;2023-04-05T09:44:03;99761.94;;;18.26;43.72
65013;BME280;51715;39.432;-77.518;2023-04-05T09:46:33;99767.56;;;18.33;43.75
65013;BME280;51715;39.432;-77.518;2023-04-05T09:49:01;99769.78;;;18.40;43.17
65013;BME280;51715;39.432;-77.518;2023-04-05T09:51:35;99772.24;;;18.22;43.15
65013;BME280;51715;39.432;-77.518;2023-04-05T09:54:05;99776.78;;;18.25;43.41
65013;BME280;51715;39.432;-77.518;2023-04-05T09:56:35;99775.42;;;18.01;43.40
65013;BME280;51715;39.432;-77.518;2023-04-05T09:59:08;99777.11;;;17.99;43.59
65013;BME280;51715;39.432;-77.518;2023-04-05T10:01:36;99780.27;;;18.21;43.78
65013;BME280;51715;39.432;-77.518;2023-04-05T10:04:04;99778.80;;;18.29;43.42
65013;BME280;51715;39.432;-77.518;2023-04-05T10:06:37;99786.51;;;18.35;43.16
65013;BME280;51715;39.432;-77.518;2023-04-05T10:09:07;99789.78;;;18.36;43.21
65013;BME280;51715;39.432;-77.518;2023-04-05T10:11:37;99790.57;;;18.32;43.62
65013;BME280;51715;39.432;-77.518;2023-04-05T10:14:08;99791.98;;;18.31;43.46
65013;BME280;51715;39.432;-77.518;2023-04-05T10:16:41;99792.20;;;18.23;43.83
65013;BME280;51715;39.432;-77.518;2023-04-05T10:19:18;99793.99;;;17.70;45.86
65013;BME280;51715;39.432;-77.518;2023-04-05T10:21:50;99794.92;;;17.64;45.48
65013;BME280;51715;39.432;-77.518;2023-04-05T10:24:32;99795.55;;;17.80;44.64
65013;BME280;51715;39.432;-77.518;2023-04-05T10:27:07;99793.81;;;17.97;44.22
65013;BME280;51715;39.432;-77.518;2023-04-05T10:29:44;99797.53;;;18.06;43.73
65013;BME280;51715;39.432;-77.518;2023-04-05T10:32:20;99805.79;;;18.07;43.54
65013;BME280;51715;39.432;-77.518;2023-04-05T10:34:59;99814.53;;;18.11;43.20
65013;BME280;51715;39.432;-77.518;2023-04-05T10:37:43;99825.02;;;18.12;43.05
65013;BME280;51715;39.432;-77.518;2023-04-05T10:40:12;99831.55;;;18.14;42.38
65013;BME280;51715;39.432;-77.518;2023-04-05T10:42:42;99834.29;;;18.12;42.03
65013;BME280;51715;39.432;-77.518;2023-04-05T10:45:16;99838.73;;;17.85;42.68
65013;BME280;51715;39.432;-77.518;2023-04-05T10:47:49;99836.84;;;17.89;42.62
65013;BME280;51715;39.432;-77.518;2023-04-05T10:50:21;99847.19;;;17.88;42.99
65013;BME280;51715;39.432;-77.518;2023-04-05T10:52:50;99850.59;;;17.92;42.29
65013;BME280;51715;39.432;-77.518;2023-04-05T10:55:19;99852.63;;;17.88;42.50
65013;BME280;51715;39.432;-77.518;2023-04-05T10:57:47;99859.75;;;18.03;43.41
65013;BME280;51715;39.432;-77.518;2023-04-05T11:00:17;99862.39;;;17.57;43.71
65013;BME280;51715;39.432;-77.518;2023-04-05T11:02:47;99862.75;;;17.66;43.19
65013;BME280;51715;39.432;-77.518;2023-04-05T11:05:33;99862.94;;;17.58;43.17
65013;BME280;51715;39.432;-77.518;2023-04-05T11:08:05;99870.21;;;17.78;43.47
65013;BME280;51715;39.432;-77.518;2023-04-05T11:10:36;99875.01;;;17.85;43.33
65013;BME280;51715;39.432;-77.518;2023-04-05T11:13:07;99874.53;;;17.67;43.09
65013;BME280;51715;39.432;-77.518;2023-04-05T11:15:37;99877.24;;;17.74;43.20
65013;BME280;51715;39.432;-77.518;2023-04-05T11:18:08;99875.48;;;17.32;44.15
65013;BME280;51715;39.432;-77.518;2023-04-05T11:20:44;99875.09;;;17.43;44.10
65013;BME280;51715;39.432;-77.518;2023-04-05T11:23:15;99878.17;;;17.74;44.13
65013;BME280;51715;39.432;-77.518;2023-04-05T11:25:51;99880.48;;;17.67;43.96
65013;BME280;51715;39.432;-77.518;2023-04-05T11:28:27;99880.45;;;17.74;43.92
65013;BME280;51715;39.432;-77.518;2023-04-05T11:30:56;99876.31;;;17.82;44.03
65013;BME280;51715;39.432;-77.518;2023-04-05T11:33:55;99871.20;;;17.90;44.13
65013;BME280;51715;39.432;-77.518;2023-04-05T11:36:38;99869.57;;;17.88;44.75
65013;BME280;51715;39.432;-77.518;2023-04-05T11:39:38;99863.60;;;18.05;44.77
65013;BME280;51715;39.432;-77.518;2023-04-05T11:42:09;99858.74;;;18.28;44.97
65013;BME280;51715;39.432;-77.518;2023-04-05T11:44:42;99857.84;;;18.47;45.01
65013;BME280;51715;39.432;-77.518;2023-04-05T11:47:11;99857.64;;;18.48;44.65
65013;BME280;51715;39.432;-77.518;2023-04-05T11:49:40;99863.76;;;18.84;44.47
65013;BME280;51715;39.432;-77.518;2023-04-05T11:52:12;99864.20;;;18.92;44.32
65013;BME280;51715;39.432;-77.518;2023-04-05T11:54:41;99870.40;;;19.19;44.31
65013;BME280;51715;39.432;-77.518;2023-04-05T11:57:12;99868.15;;;19.17;44.04
65013;BME280;51715;39.432;-77.518;2023-04-05T11:59:42;99866.92;;;19.54;43.78
65013;BME280;51715;39.432;-77.518;2023-04-05T12:02:11;99868.17;;;19.75;43.76
65013;BME280;51715;39.432;-77.518;2023-04-05T12:04:40;99869.35;;;20.01;43.86
65013;BME280;51715;39.432;-77.518;2023-04-05T12:07:11;99870.56;;;20.08;44.53
65013;BME280;51715;39.432;-77.518;2023-04-05T12:09:58;99872.42;;;19.86;44.77
65013;BME280;51715;39.432;-77.518;2023-04-05T12:12:28;99877.80;;;19.97;45.95
65013;BME280;51715;39.432;-77.518;2023-04-05T12:15:00;99877.93;;;20.56;44.92
65013;BME280;51715;39.432;-77.518;2023-04-05T12:17:45;99879.04;;;20.27;47.05
65013;BME280;51715;39.432;-77.518;2023-04-05T12:20:16;99877.63;;;21.07;45.70
65013;BME280;51715;39.432;-77.518;2023-04-05T12:22:47;99878.15;;;21.42;44.93
65013;BME280;51715;39.432;-77.518;2023-04-05T12:25:17;99873.14;;;21.37;43.63
65013;BME280;51715;39.432;-77.518;2023-04-05T12:27:46;99873.15;;;22.12;43.04
65013;BME280;51715;39.432;-77.518;2023-04-05T12:30:18;99874.80;;;21.99;43.23
65013;BME280;51715;39.432;-77.518;2023-04-05T12:32:49;99871.40;;;22.51;42.50
65013;BME280;51715;39.432;-77.518;2023-04-05T12:35:19;99871.04;;;22.74;41.56
65013;BME280;51715;39.432;-77.518;2023-04-05T12:37:50;99873.16;;;22.95;41.23
65013;BME280;51715;39.432;-77.518;2023-04-05T12:40:21;99878.19;;;22.89;40.99
65013;BME280;51715;39.432;-77.518;2023-04-05T12:42:51;99873.74;;;23.01;41.20
65013;BME280;51715;39.432;-77.518;2023-04-05T12:45:22;99871.98;;;23.41;40.49
65013;BME280;51715;39.432;-77.518;2023-04-05T12:47:56;99871.56;;;23.75;39.85
65013;BME280;51715;39.432;-77.518;2023-04-05T12:50:27;99868.27;;;23.79;39.57
65013;BME280;51715;39.432;-77.518;2023-04-05T12:52:58;99862.10;;;24.20;37.91
65013;BME280;51715;39.432;-77.518;2023-04-05T12:55:27;99859.40;;;24.12;38.98
65013;BME280;51715;39.432;-77.518;2023-04-05T12:57:59;99855.43;;;24.21;38.09